Time;durP1;ratioP1;P1;durP2;ratioP2;P2;SDS_P1;SDS_P2;PMS_P1;PMS_P2;Temp;Humidity;BMP_temperature;BMP_pressure;BME280_temperature;BME280_humidity;BME280_pressure;Samples;Min_cycle;Max_cycle;Signal;HPM_P1;HPM_P2
2021/10/15 00:00:21;;;;;;;20.08;10.77;;;8.70;99.90;;;;;;5071579;28;20158;-74
2021/10/15 00:02:47;;;;;;;21.13;11.82;;;8.60;99.90;;;;;;5054408;28;20025;-74
2021/10/15 00:05:13;;;;;;;21.90;11.70;;;8.50;99.90;;;;;;5055645;28;20547;-74
2021/10/15 00:07:38;;;;;;;22.73;10.73;;;8.50;99.90;;;;;;5055694;28;20504;-72
2021/10/15 00:10:07;;;;;;;20.42;12.18;;;8.50;99.90;;;;;;5055677;28;20040;-74
2021/10/15 00:12:34;;;;;;;24.80;13.48;;;8.50;99.90;;;;;;5071113;28;20555;-72
2021/10/15 00:15:01;;;;;;;21.30;11.82;;;8.60;99.90;;;;;;5054755;28;20114;-72
2021/10/15 00:17:27;;;;;;;22.70;12.63;;;8.60;99.90;;;;;;5055732;28;20029;-72
2021/10/15 00:19:53;;;;;;;22.95;12.60;;;8.60;99.90;;;;;;5055442;28;20052;-72
2021/10/15 00:22:19;;;;;;;19.00;12.05;;;8.50;99.90;;;;;;5071109;28;20116;-72
2021/10/15 00:24:45;;;;;;;20.48;12.57;;;8.40;99.90;;;;;;5071018;28;20035;-72
2021/10/15 00:27:10;;;;;;;20.33;12.63;;;8.30;99.90;;;;;;5055633;28;20033;-72
2021/10/15 00:29:37;;;;;;;18.92;11.18;;;8.40;99.90;;;;;;5070816;28;20047;-72
2021/10/15 00:32:05;;;;;;;16.10;9.00;;;8.40;99.90;;;;;;5055363;28;20123;-72
2021/10/15 00:34:31;;;;;;;12.68;8.15;;;8.30;99.90;;;;;;5055426;28;20036;-73
2021/10/15 00:36:57;;;;;;;14.23;7.13;;;8.20;99.90;;;;;;5070631;28;20123;-73
2021/10/15 00:39:22;;;;;;;13.05;7.55;;;8.10;99.90;;;;;;5070367;28;20037;-73
2021/10/15 00:41:48;;;;;;;16.27;5.95;;;8.20;99.90;;;;;;5054824;28;20025;-73
2021/10/15 00:44:14;;;;;;;11.95;6.38;;;8.10;99.90;;;;;;5070780;28;20044;-73
2021/10/15 00:46:42;;;;;;;14.55;6.85;;;8.30;99.90;;;;;;5070404;28;20025;-73
2021/10/15 00:49:12;;;;;;;14.40;6.47;;;8.30;99.90;;;;;;5054882;28;20037;-73
2021/10/15 00:51:42;;;;;;;12.27;6.57;;;8.30;99.90;;;;;;5070749;28;20122;-73
2021/10/15 00:54:10;;;;;;;11.75;5.93;;;8.40;99.90;;;;;;5070366;28;20025;-73
2021/10/15 00:56:37;;;;;;;10.25;6.43;;;8.30;99.90;;;;;;5070469;28;20036;-73
2021/10/15 00:59:03;;;;;;;9.63;5.95;;;8.30;99.90;;;;;;5070181;28;20029;-73
2021/10/15 01:01:30;;;;;;;8.43;5.15;;;8.20;99.90;;;;;;5069010;28;20036;-73
2021/10/15 01:04:01;;;;;;;12.27;6.68;;;8.20;99.90;;;;;;5054720;28;20029;-73
2021/10/15 01:06:28;;;;;;;11.25;5.78;;;8.20;99.90;;;;;;5053678;28;20583;-73
2021/10/15 01:08:54;;;;;;;11.48;5.13;;;8.30;99.90;;;;;;5054351;28;20041;-73
2021/10/15 01:11:20;;;;;;;11.93;6.50;;;8.30;99.90;;;;;;5054825;28;20035;-73
2021/10/15 01:13:47;;;;;;;9.10;5.40;;;8.30;99.90;;;;;;5070001;28;20426;-73
2021/10/15 01:16:14;;;;;;;13.73;5.60;;;8.20;99.90;;;;;;5070265;28;20033;-73
2021/10/15 01:18:42;;;;;;;12.02;6.57;;;8.20;99.90;;;;;;5069552;28;20525;-73
2021/10/15 01:21:11;;;;;;;14.68;6.03;;;8.10;99.90;;;;;;5070211;28;20032;-73
2021/10/15 01:23:38;;;;;;;12.25;5.70;;;8.00;99.90;;;;;;5054444;28;20071;-73
2021/10/15 01:26:05;;;;;;;11.95;6.60;;;7.80;99.90;;;;;;5054661;28;20362;-73
2021/10/15 01:28:32;;;;;;;10.27;5.82;;;7.70;99.90;;;;;;5054418;28;20028;-73
2021/10/15 01:31:00;;;;;;;11.13;5.90;;;7.60;99.90;;;;;;5054157;28;20032;-73
2021/10/15 01:33:27;;;;;;;9.77;5.93;;;7.60;99.90;;;;;;5054125;28;20029;-73
2021/10/15 01:35:53;;;;;;;11.25;6.75;;;7.60;99.90;;;;;;5054283;28;20033;-73
2021/10/15 01:38:19;;;;;;;9.48;6.18;;;7.60;99.90;;;;;;5069495;28;20100;-73
2021/10/15 01:40:45;;;;;;;10.70;6.47;;;7.50;99.90;;;;;;5052603;28;20438;-73
2021/10/15 01:43:27;;;;;;;15.65;6.78;;;7.60;99.90;;;;;;5069505;28;20076;-73
2021/10/15 01:45:54;;;;;;;13.60;6.53;;;7.60;99.90;;;;;;5054010;28;20037;-73
2021/10/15 01:48:21;;;;;;;12.75;5.78;;;7.50;99.90;;;;;;5069476;28;20037;-73
2021/10/15 01:50:47;;;;;;;12.38;6.20;;;7.50;99.90;;;;;;5069449;28;20039;-73
2021/10/15 01:53:13;;;;;;;10.20;6.10;;;7.40;99.90;;;;;;5053880;28;20382;-73
2021/10/15 01:55:39;;;;;;;14.40;6.78;;;7.40;99.90;;;;;;5069455;28;20519;-73
2021/10/15 01:58:05;;;;;;;13.02;6.70;;;7.30;99.90;;;;;;5069361;28;20064;-73
2021/10/15 02:00:35;;;;;;;9.85;6.22;;;7.30;99.90;;;;;;5053818;28;20033;-73
2021/10/15 02:03:00;;;;;;;22.30;6.85;;;7.40;99.90;;;;;;5052500;28;20062;-73
2021/10/15 02:05:30;;;;;;;10.00;6.25;;;7.40;99.90;;;;;;5053754;28;20127;-73
2021/10/15 02:07:56;;;;;;;10.93;6.70;;;7.60;99.90;;;;;;5068257;28;20029;-73
2021/10/15 02:10:23;;;;;;;10.68;5.70;;;7.70;99.90;;;;;;5051870;28;20086;-73
2021/10/15 02:12:50;;;;;;;11.98;6.15;;;7.80;99.90;;;;;;5053342;28;20120;-73
2021/10/15 02:15:15;;;;;;;11.07;6.30;;;7.70;99.90;;;;;;5053646;28;20556;-73
2021/10/15 02:17:42;;;;;;;12.27;6.30;;;7.70;99.90;;;;;;5068777;28;20033;-73
2021/10/15 02:20:11;;;;;;;15.38;6.35;;;7.70;99.90;;;;;;5053530;28;20029;-72
2021/10/15 02:22:50;;;;;;;15.40;6.80;;;7.70;99.90;;;;;;5068689;28;20036;-73
2021/10/15 02:25:18;;;;;;;9.55;6.07;;;7.70;99.90;;;;;;5068705;28;20056;-73
2021/10/15 02:27:44;;;;;;;10.93;6.45;;;7.70;99.90;;;;;;5052920;28;20115;-73
2021/10/15 02:30:12;;;;;;;12.55;6.40;;;7.70;99.90;;;;;;5053148;28;20132;-73
2021/10/15 02:32:38;;;;;;;10.90;6.00;;;7.60;99.90;;;;;;5068239;28;20555;-73
2021/10/15 02:35:06;;;;;;;10.90;6.25;;;7.60;99.90;;;;;;5053072;28;20049;-73
2021/10/15 02:37:32;;;;;;;9.80;6.20;;;7.60;99.90;;;;;;5068380;28;20036;-72
2021/10/15 02:39:58;;;;;;;10.68;6.25;;;7.50;99.90;;;;;;5052592;28;20029;-73
2021/10/15 02:42:24;;;;;;;9.65;6.00;;;7.60;99.90;;;;;;5052995;28;20110;-73
2021/10/15 02:44:49;;;;;;;10.45;6.20;;;7.50;99.90;;;;;;5052848;28;20497;-73
2021/10/15 02:47:15;;;;;;;14.57;7.07;;;7.50;99.90;;;;;;5052854;28;20036;-73
2021/10/15 02:49:42;;;;;;;11.20;6.95;;;7.50;99.90;;;;;;5052847;28;20048;-73
2021/10/15 02:52:07;;;;;;;13.45;6.85;;;7.40;99.90;;;;;;5051576;28;20108;-73
2021/10/15 02:54:33;;;;;;;11.95;7.13;;;7.40;99.90;;;;;;5067959;28;20478;-73
2021/10/15 02:56:59;;;;;;;12.90;7.80;;;7.30;99.90;;;;;;5068120;28;20040;-73
2021/10/15 02:59:25;;;;;;;19.35;8.68;;;7.30;99.90;;;;;;5052396;28;20067;-73
2021/10/15 03:01:50;;;;;;;11.88;6.97;;;7.30;99.90;;;;;;5052644;28;20037;-73
2021/10/15 03:04:16;;;;;;;14.00;7.47;;;7.40;99.90;;;;;;5052660;28;20032;-73
2021/10/15 03:06:42;;;;;;;12.25;7.07;;;7.30;99.90;;;;;;5052622;28;20036;-73
2021/10/15 03:09:07;;;;;;;17.13;8.07;;;7.30;99.90;;;;;;5052536;28;20048;-73
2021/10/15 03:11:33;;;;;;;14.70;7.55;;;7.30;99.90;;;;;;5052698;28;20497;-73
2021/10/15 03:13:59;;;;;;;11.90;7.00;;;7.20;99.90;;;;;;5052451;28;20029;-73
2021/10/15 03:16:28;;;;;;;14.57;7.20;;;7.10;99.90;;;;;;5052461;28;20037;-74
2021/10/15 03:18:53;;;;;;;13.02;7.30;;;7.00;99.90;;;;;;5050946;28;20048;-73
2021/10/15 03:21:19;;;;;;;16.45;8.25;;;7.00;99.90;;;;;;5067984;28;20079;-73
2021/10/15 03:23:45;;;;;;;11.15;7.28;;;6.90;99.90;;;;;;5067397;28;20044;-73
2021/10/15 03:26:11;;;;;;;16.20;7.90;;;6.90;99.90;;;;;;5052256;28;20040;-73
2021/10/15 03:28:36;;;;;;;15.23;7.68;;;6.90;99.90;;;;;;5067676;28;20064;-73
2021/10/15 03:31:02;;;;;;;11.70;7.22;;;6.80;99.90;;;;;;5052402;28;20087;-73
2021/10/15 03:33:28;;;;;;;16.10;8.02;;;6.80;99.90;;;;;;5067415;28;20092;-73
2021/10/15 03:35:54;;;;;;;16.13;8.55;;;6.80;99.90;;;;;;5052112;28;20033;-74
2021/10/15 03:38:20;;;;;;;14.77;9.07;;;6.70;99.90;;;;;;5052390;28;20033;-73
2021/10/15 03:40:45;;;;;;;14.18;8.23;;;6.70;99.90;;;;;;5052098;28;20025;-74
2021/10/15 03:43:11;;;;;;;13.73;7.75;;;6.70;99.90;;;;;;5067549;28;20036;-74
2021/10/15 03:45:37;;;;;;;14.50;8.75;;;6.70;99.90;;;;;;5052082;28;20028;-74
2021/10/15 03:48:03;;;;;;;13.60;8.27;;;6.70;99.90;;;;;;5052142;28;20029;-74
2021/10/15 03:50:29;;;;;;;18.60;8.82;;;6.70;99.90;;;;;;5051757;28;20033;-74
2021/10/15 03:52:55;;;;;;;17.58;9.70;;;6.70;99.90;;;;;;5051905;28;20029;-74
2021/10/15 03:55:20;;;;;;;15.10;8.30;;;6.60;99.90;;;;;;5052297;28;20033;-74
2021/10/15 03:57:46;;;;;;;14.52;8.48;;;6.60;99.90;;;;;;5052020;28;20025;-74
2021/10/15 04:00:13;;;;;;;17.83;9.02;;;6.60;99.90;;;;;;5051882;28;20470;-74
2021/10/15 04:02:45;;;;;;;21.42;9.43;;;6.80;99.90;;;;;;5067186;28;20025;-74
2021/10/15 04:05:13;;;;;;;14.20;9.43;;;6.80;99.90;;;;;;5067553;28;20048;-74
2021/10/15 04:07:39;;;;;;;16.02;8.65;;;6.70;99.90;;;;;;5066786;28;20031;-74
2021/10/15 04:10:08;;;;;;;17.00;10.40;;;6.70;99.90;;;;;;5051644;28;20376;-74
2021/10/15 04:12:35;;;;;;;13.38;8.38;;;6.70;99.90;;;;;;5067371;28;20025;-74
2021/10/15 04:15:02;;;;;;;14.23;8.75;;;6.60;99.90;;;;;;5051678;28;20033;-74
2021/10/15 04:17:28;;;;;;;16.77;8.52;;;6.60;99.90;;;;;;5051883;28;20612;-74
2021/10/15 04:19:53;;;;;;;14.07;8.77;;;6.60;99.90;;;;;;5051514;28;20045;-74
2021/10/15 04:22:19;;;;;;;21.73;10.52;;;6.60;99.90;;;;;;5051467;28;20078;-74
2021/10/15 04:24:45;;;;;;;25.17;12.13;;;6.70;99.90;;;;;;5067099;28;20389;-74
2021/10/15 04:27:11;;;;;;;17.15;9.82;;;6.70;99.90;;;;;;5052005;28;20112;-74
2021/10/15 04:29:36;;;;;;;17.17;9.65;;;6.60;99.90;;;;;;5067082;28;20412;-74
2021/10/15 04:32:03;;;;;;;14.23;8.35;;;6.60;99.90;;;;;;5051827;28;20563;-74
2021/10/15 04:34:29;;;;;;;20.35;10.10;;;6.70;99.90;;;;;;5052032;28;20048;-74
2021/10/15 04:36:55;;;;;;;15.73;8.80;;;6.60;99.90;;;;;;5053178;28;20474;-74
2021/10/15 04:39:20;;;;;;;22.40;9.02;;;6.60;99.90;;;;;;5055173;28;20037;-74
2021/10/15 04:41:46;;;;;;;16.42;8.35;;;6.60;99.90;;;;;;5054985;28;20033;-74
2021/10/15 04:44:13;;;;;;;17.40;8.65;;;6.60;99.90;;;;;;5055417;28;20163;-74
2021/10/15 04:46:39;;;;;;;15.00;8.02;;;6.60;99.90;;;;;;5054538;28;20104;-74
2021/10/15 04:49:05;;;;;;;13.70;7.70;;;6.70;99.90;;;;;;5055192;28;20021;-74
2021/10/15 04:51:31;;;;;;;12.65;8.30;;;6.80;99.90;;;;;;5036951;28;20036;-74
2021/10/15 04:53:57;;;;;;;14.00;8.40;;;6.90;99.90;;;;;;5055223;28;20033;-74
2021/10/15 04:56:22;;;;;;;14.25;7.65;;;6.70;99.90;;;;;;5055169;28;20035;-74
2021/10/15 04:58:48;;;;;;;16.58;9.32;;;6.50;99.90;;;;;;5054924;28;20025;-74
2021/10/15 05:01:14;;;;;;;14.55;7.63;;;6.40;99.90;;;;;;5054918;28;20037;-75
2021/10/15 05:03:40;;;;;;;19.88;8.85;;;6.40;99.90;;;;;;5070151;28;20041;-75
2021/10/15 05:06:05;;;;;;;15.27;7.78;;;6.50;99.90;;;;;;5055160;28;20072;-74
2021/10/15 05:08:38;;;;;;;14.20;8.38;;;6.60;99.90;;;;;;5054876;28;20027;-74
2021/10/15 05:11:04;;;;;;;17.40;8.57;;;6.50;99.90;;;;;;5070218;28;20494;-74
2021/10/15 05:13:29;;;;;;;15.60;7.57;;;6.50;99.90;;;;;;5070308;28;20032;-74
2021/10/15 05:15:55;;;;;;;15.90;7.85;;;6.50;99.90;;;;;;5070228;28;20037;-74
2021/10/15 05:18:21;;;;;;;14.85;7.82;;;6.40;99.90;;;;;;5054279;28;20043;-74
2021/10/15 05:20:47;;;;;;;15.18;8.63;;;6.40;99.90;;;;;;5070097;28;20033;-74
2021/10/15 05:23:13;;;;;;;16.52;8.43;;;6.50;99.90;;;;;;5070071;28;20100;-74
2021/10/15 05:25:40;;;;;;;15.75;8.45;;;6.50;99.90;;;;;;5054516;28;20039;-74
2021/10/15 05:28:06;;;;;;;15.18;8.68;;;6.30;99.90;;;;;;5054588;28;20158;-74
2021/10/15 05:30:32;;;;;;;15.38;8.50;;;6.30;99.90;;;;;;5054414;28;20135;-74
2021/10/15 05:32:58;;;;;;;14.00;8.13;;;6.20;99.90;;;;;;5052824;28;20108;-74
2021/10/15 05:35:24;;;;;;;18.17;9.98;;;6.20;99.90;;;;;;5069872;28;20033;-74
2021/10/15 05:37:50;;;;;;;20.45;9.70;;;6.20;99.90;;;;;;5069677;28;20083;-74
2021/10/15 05:40:19;;;;;;;15.32;9.23;;;6.20;99.90;;;;;;5053893;28;20041;-74
2021/10/15 05:42:49;;;;;;;18.13;9.48;;;6.10;99.90;;;;;;5065895;28;20029;-74
2021/10/15 05:45:17;;;;;;;17.58;9.50;;;6.20;99.90;;;;;;5046142;28;20048;-68
2021/10/15 05:47:43;;;;;;;20.20;11.95;;;6.30;99.90;;;;;;5040879;28;20073;-73
2021/10/15 05:50:10;;;;;;;19.92;9.57;;;6.30;99.90;;;;;;5041665;28;20044;-74
2021/10/15 05:52:42;;;;;;;16.52;9.48;;;6.30;99.90;;;;;;5045974;28;20040;-75
2021/10/15 05:55:25;;;;;;;16.80;9.18;;;6.30;99.90;;;;;;5062679;28;20037;-73
2021/10/15 06:00:37;;;;;;;17.50;8.57;;;6.30;99.90;;;;;;5052518;28;20044;-72
2021/10/15 06:03:04;;;;;;;18.42;8.75;;;6.40;99.90;;;;;;5052482;28;20036;-69
2021/10/15 06:16:23;;;;;;;16.38;9.65;;;6.50;99.90;;;;;;5033973;28;20038;-72
2021/10/15 06:18:54;;;;;;;15.27;8.93;;;6.60;99.90;;;;;;5066238;28;20700;-70
2021/10/15 06:21:20;;;;;;;21.00;9.68;;;6.50;99.90;;;;;;5037963;28;20029;-72
2021/10/15 06:23:45;;;;;;;18.60;9.38;;;6.50;99.90;;;;;;5043416;28;20047;-73
2021/10/15 06:26:11;;;;;;;17.70;8.57;;;6.60;99.90;;;;;;5034326;28;20095;-69
2021/10/15 06:28:37;;;;;;;17.45;8.07;;;6.60;99.90;;;;;;5032018;28;20078;-73
2021/10/15 06:31:02;;;;;;;14.57;8.68;;;6.70;99.90;;;;;;5035711;28;20033;-72
2021/10/15 06:33:28;;;;;;;14.82;8.70;;;6.70;99.90;;;;;;5048551;28;20040;-74
2021/10/15 06:35:54;;;;;;;17.42;8.65;;;6.70;99.90;;;;;;5048350;28;20037;-75
2021/10/15 06:38:20;;;;;;;14.35;7.95;;;6.70;99.90;;;;;;5048345;28;20025;-75
2021/10/15 06:40:46;;;;;;;18.30;10.05;;;6.70;99.90;;;;;;5048265;28;20080;-74
2021/10/15 06:43:12;;;;;;;20.90;9.70;;;6.80;99.90;;;;;;5048231;28;20076;-76
2021/10/15 06:45:38;;;;;;;18.98;9.20;;;6.80;99.90;;;;;;5032870;28;20045;-74
2021/10/15 06:48:04;;;;;;;16.40;8.30;;;6.90;99.90;;;;;;5053363;28;20030;-75
2021/10/15 06:50:30;;;;;;;15.50;8.32;;;6.80;99.90;;;;;;5072614;28;20121;-72
2021/10/15 06:52:57;;;;;;;16.92;8.77;;;6.80;99.90;;;;;;5071149;28;20051;-72
2021/10/15 06:55:24;;;;;;;14.80;8.77;;;6.90;99.90;;;;;;5067294;28;20029;-72
2021/10/15 06:57:51;;;;;;;13.18;7.93;;;6.90;99.90;;;;;;5031515;28;20059;-70
2021/10/15 07:00:18;;;;;;;15.00;7.53;;;6.90;99.90;;;;;;5030304;28;20036;-72
2021/10/15 07:02:44;;;;;;;14.52;8.30;;;7.00;99.90;;;;;;5031283;28;20044;-73
2021/10/15 07:05:11;;;;;;;16.00;8.68;;;7.00;99.90;;;;;;5031377;28;20037;-73
2021/10/15 07:07:38;;;;;;;11.55;7.05;;;7.20;99.90;;;;;;5032574;28;20037;-73
2021/10/15 07:10:08;;;;;;;12.27;7.13;;;7.20;99.90;;;;;;5032327;28;20600;-73
2021/10/15 07:12:43;;;;;;;10.55;6.55;;;7.30;99.90;;;;;;5031367;28;20025;-73
2021/10/15 07:15:13;;;;;;;12.48;7.22;;;7.30;99.90;;;;;;5032262;28;20051;-73
2021/10/15 07:17:39;;;;;;;16.20;7.88;;;7.30;99.90;;;;;;5032118;28;20030;-73
2021/10/15 07:20:07;;;;;;;13.50;7.78;;;7.30;99.90;;;;;;5070623;28;20036;-73
2021/10/15 07:22:33;;;;;;;16.33;8.23;;;7.40;99.90;;;;;;5072170;28;20158;-73
2021/10/15 07:24:59;;;;;;;13.60;7.90;;;7.40;99.90;;;;;;5070779;28;20029;-74
2021/10/15 07:27:25;;;;;;;14.18;7.15;;;7.40;99.90;;;;;;5052196;28;20082;-74
2021/10/15 07:29:51;;;;;;;11.95;7.47;;;7.40;99.90;;;;;;5051994;28;20374;-75
2021/10/15 07:32:16;;;;;;;14.18;7.75;;;7.40;99.90;;;;;;5050917;28;20029;-74
2021/10/15 07:34:42;;;;;;;12.85;7.55;;;7.50;99.90;;;;;;5034220;28;20049;-76
2021/10/15 07:37:08;;;;;;;17.50;7.65;;;7.50;99.90;;;;;;5067967;28;20021;-74
2021/10/15 07:39:35;;;;;;;11.00;7.72;;;7.60;99.90;;;;;;5043310;28;20083;-75
2021/10/15 07:42:01;;;;;;;20.20;8.98;;;7.60;99.90;;;;;;5046906;28;20029;-75
2021/10/15 07:44:27;;;;;;;15.82;7.53;;;7.50;99.90;;;;;;5043072;28;20029;-74
2021/10/15 07:46:52;;;;;;;13.15;7.97;;;7.50;99.90;;;;;;5067050;28;20029;-73
2021/10/15 07:49:19;;;;;;;18.60;7.53;;;7.50;99.90;;;;;;5066991;28;20502;-74
2021/10/15 07:51:46;;;;;;;13.73;8.45;;;7.70;99.90;;;;;;5067054;28;20041;-74
2021/10/15 07:54:12;;;;;;;17.27;6.78;;;7.70;99.90;;;;;;5041625;28;20033;-74
2021/10/15 07:56:38;;;;;;;17.65;7.88;;;7.80;99.90;;;;;;5039979;28;20113;-77
2021/10/15 07:59:03;;;;;;;13.75;7.43;;;7.80;99.90;;;;;;5047058;28;20557;-79
2021/10/15 08:01:29;;;;;;;15.32;8.23;;;7.90;99.90;;;;;;5034693;28;20037;-78
2021/10/15 08:03:56;;;;;;;15.50;8.40;;;8.00;99.90;;;;;;5049704;28;20394;-69
2021/10/15 08:06:22;;;;;;;16.27;8.43;;;8.00;99.90;;;;;;5050789;28;20036;-71
2021/10/15 08:08:51;;;;;;;18.10;8.75;;;8.10;99.90;;;;;;5035344;28;20513;-73
2021/10/15 08:11:18;;;;;;;17.15;7.65;;;8.20;99.90;;;;;;5051678;28;20048;-74
2021/10/15 08:13:44;;;;;;;11.68;7.35;;;8.40;99.90;;;;;;5053783;28;20041;-74
2021/10/15 08:16:10;;;;;;;16.60;7.80;;;8.50;99.90;;;;;;5053927;28;20033;-74
2021/10/15 08:18:36;;;;;;;15.55;8.13;;;8.50;99.90;;;;;;5054938;28;20059;-74
2021/10/15 08:21:02;;;;;;;17.63;7.32;;;8.40;99.90;;;;;;5055166;28;20482;-74
2021/10/15 08:23:30;;;;;;;13.60;7.05;;;8.50;99.90;;;;;;5053866;28;20048;-74
2021/10/15 08:25:59;;;;;;;11.98;7.43;;;8.60;99.90;;;;;;5053453;28;20040;-73
2021/10/15 08:28:25;;;;;;;13.27;7.82;;;8.60;99.90;;;;;;5054414;28;20043;-73
2021/10/15 08:30:52;;;;;;;16.75;8.15;;;8.70;99.90;;;;;;5055448;28;20482;-74
2021/10/15 08:33:18;;;;;;;12.20;7.25;;;8.80;99.90;;;;;;5054445;28;20033;-74
2021/10/15 08:35:45;;;;;;;13.70;7.57;;;8.90;99.90;;;;;;5054154;28;20037;-73
2021/10/15 08:38:12;;;;;;;15.15;7.95;;;8.90;99.90;;;;;;5055364;28;20033;-73
2021/10/15 08:40:37;;;;;;;10.75;6.93;;;9.00;99.90;;;;;;5049332;28;20033;-75
2021/10/15 08:43:03;;;;;;;14.60;7.82;;;9.00;99.90;;;;;;5042648;28;20036;-75
2021/10/15 08:45:32;;;;;;;16.38;7.60;;;9.00;99.90;;;;;;5050291;28;20421;-74
2021/10/15 08:48:00;;;;;;;14.07;7.60;;;9.10;99.90;;;;;;5035236;28;20025;-73
2021/10/15 08:50:26;;;;;;;16.27;7.95;;;9.20;99.90;;;;;;5060072;28;20029;-74
2021/10/15 08:52:52;;;;;;;15.77;7.88;;;9.40;99.90;;;;;;5055140;28;20072;-73
2021/10/15 08:55:19;;;;;;;14.05;7.35;;;9.60;99.90;;;;;;5070280;28;20502;-74
2021/10/15 08:57:56;;;;;;;16.20;7.97;;;9.60;99.90;;;;;;5055156;28;20033;-74
2021/10/15 09:00:28;;;;;;;13.85;7.22;;;9.60;99.90;;;;;;5070342;28;20123;-73
2021/10/15 09:03:18;;;;;;;16.30;7.35;;;9.70;99.90;;;;;;5054890;28;20033;-74
2021/10/15 09:06:01;;;;;;;13.55;7.60;;;9.90;99.90;;;;;;5054599;28;20037;-74
2021/10/15 09:08:53;;;;;;;12.85;7.38;;;9.90;99.90;;;;;;5054864;28;20037;-73
2021/10/15 09:11:29;;;;;;;13.90;8.02;;;10.20;99.90;;;;;;5054512;28;20171;-74
2021/10/15 09:14:15;;;;;;;16.05;7.75;;;10.30;99.90;;;;;;5069823;28;20130;-74
2021/10/15 09:17:09;;;;;;;11.88;7.78;;;10.50;99.90;;;;;;5054933;28;20029;-74
2021/10/15 09:19:50;;;;;;;16.92;7.43;;;10.40;99.90;;;;;;5054174;28;20041;-74
2021/10/15 09:22:27;;;;;;;14.65;7.15;;;10.50;99.90;;;;;;5067605;28;20035;-75
2021/10/15 09:25:12;;;;;;;13.25;6.60;;;10.70;99.90;;;;;;5069809;28;20083;-74
2021/10/15 09:27:38;;;;;;;15.32;8.02;;;10.80;99.90;;;;;;5054189;28;20405;-75
2021/10/15 09:30:14;;;;;;;11.82;7.30;;;11.10;99.90;;;;;;5069342;28;20035;-75
2021/10/15 09:32:49;;;;;;;11.50;6.85;;;11.30;99.90;;;;;;5069694;28;20108;-75
2021/10/15 09:35:28;;;;;;;10.88;6.68;;;11.30;99.90;;;;;;5054290;28;20045;-75
2021/10/15 09:38:01;;;;;;;11.32;6.90;;;11.50;99.90;;;;;;5069163;28;20179;-75
2021/10/15 09:40:36;;;;;;;13.52;7.13;;;11.50;99.90;;;;;;5054021;28;20544;-74
2021/10/15 09:43:06;;;;;;;10.57;6.93;;;11.60;99.90;;;;;;5069571;28;20428;-74
2021/10/15 09:45:38;;;;;;;13.90;8.00;;;11.70;99.90;;;;;;5054072;28;20146;-74
2021/10/15 09:48:39;;;;;;;12.95;6.70;;;11.80;99.90;;;;;;5068777;28;20716;-74
2021/10/15 09:51:21;;;;;;;12.10;7.15;;;11.90;99.90;;;;;;5032785;28;20037;-74
2021/10/15 09:54:11;;;;;;;12.70;6.30;;;12.00;99.90;;;;;;5034281;28;20030;-74
2021/10/15 09:56:51;;;;;;;12.13;6.38;;;12.00;99.90;;;;;;5033672;28;20379;-75
2021/10/15 09:59:17;;;;;;;14.52;7.07;;;12.00;99.90;;;;;;5032594;28;20032;-74
2021/10/15 10:01:43;;;;;;;12.45;6.70;;;12.20;99.90;;;;;;5032297;28;20026;-74
2021/10/15 10:04:13;;;;;;;12.13;6.40;;;12.40;99.90;;;;;;5033812;28;20030;-74
2021/10/15 10:06:39;;;;;;;14.90;6.45;;;12.30;99.90;;;;;;5032316;28;20030;-75
2021/10/15 10:09:07;;;;;;;11.85;6.13;;;12.40;99.90;;;;;;5032121;28;20394;-75
2021/10/15 10:11:34;;;;;;;11.05;5.55;;;12.60;99.90;;;;;;5032247;28;20041;-75
2021/10/15 10:14:00;;;;;;;10.32;5.70;;;12.90;99.90;;;;;;5032241;28;20040;-74
2021/10/15 10:16:29;;;;;;;15.38;5.47;;;12.90;99.90;;;;;;5033408;28;20041;-74
2021/10/15 10:19:00;;;;;;;13.23;6.18;;;12.90;99.90;;;;;;5032033;28;20054;-75
2021/10/15 10:21:33;;;;;;;11.32;5.90;;;12.70;99.90;;;;;;5032430;28;20033;-74
2021/10/15 10:24:12;;;;;;;10.27;5.78;;;12.80;99.90;;;;;;5032083;28;20044;-75
2021/10/15 10:26:46;;;;;;;9.15;5.95;;;12.80;99.90;;;;;;5032191;28;20095;-74
2021/10/15 10:29:13;;;;;;;14.25;5.78;;;12.70;99.90;;;;;;5032704;28;20039;-74
2021/10/15 10:31:39;;;;;;;8.77;5.90;;;12.60;99.90;;;;;;5031815;28;20390;-74
2021/10/15 10:34:21;;;;;;;14.15;6.05;;;12.90;99.90;;;;;;5033080;28;20025;-74
2021/10/15 10:37:04;;;;;;;11.30;5.65;;;12.80;99.90;;;;;;5033057;28;20453;-73
2021/10/15 10:39:31;;;;;;;10.15;5.22;;;12.80;99.90;;;;;;5032161;28;20029;-73
2021/10/15 10:42:24;;;;;;;7.90;4.60;;;13.10;99.90;;;;;;5033054;28;20029;-73
2021/10/15 10:44:49;;;;;;;9.75;5.00;;;13.30;99.90;;;;;;5031959;28;20108;-73
2021/10/15 10:47:23;;;;;;;9.10;5.65;;;13.20;99.90;;;;;;5032814;28;20517;-73
2021/10/15 10:50:11;;;;;;;7.32;4.25;;;13.40;99.90;;;;;;5031850;28;20040;-73
2021/10/15 10:53:04;;;;;;;6.95;4.80;;;13.60;99.90;;;;;;5032699;28;20124;-74
2021/10/15 10:55:41;;;;;;;7.88;4.45;;;13.70;99.90;;;;;;5045368;28;20124;-74
2021/10/15 10:58:35;;;;;;;12.27;4.82;;;13.90;99.90;;;;;;5035132;28;20096;-74
2021/10/15 11:01:26;;;;;;;9.77;5.43;;;14.10;99.90;;;;;;5052658;28;20493;-73
2021/10/15 11:03:54;;;;;;;7.68;4.10;;;14.10;99.90;;;;;;5067737;28;20098;-74
2021/10/15 11:06:21;;;;;;;10.35;3.90;;;14.20;99.90;;;;;;5067871;28;20511;-74
2021/10/15 11:08:47;;;;;;;11.30;3.53;;;14.30;99.90;;;;;;5051326;28;20044;-74
2021/10/15 11:11:22;;;;;;;8.13;4.32;;;14.40;99.90;;;;;;5052407;28;20029;-74
2021/10/15 11:13:49;;;;;;;5.68;3.75;;;14.30;99.90;;;;;;5052241;28;20033;-74
2021/10/15 11:16:27;;;;;;;9.20;4.03;;;14.30;99.90;;;;;;5067640;28;20128;-73
2021/10/15 11:18:56;;;;;;;9.25;3.80;;;14.40;99.90;;;;;;5052110;28;20483;-74
2021/10/15 11:21:23;;;;;;;9.52;4.13;;;14.40;99.90;;;;;;5067630;28;20047;-73
2021/10/15 11:23:49;;;;;;;6.85;3.58;;;14.60;99.90;;;;;;5051975;28;20028;-74
2021/10/15 11:26:16;;;;;;;7.18;3.85;;;14.60;99.90;;;;;;5050723;28;20087;-74
2021/10/15 11:28:42;;;;;;;6.72;3.35;;;14.70;99.90;;;;;;5052342;28;20021;-74
2021/10/15 11:31:13;;;;;;;8.82;3.13;;;14.70;99.90;;;;;;5067554;28;20040;-74
2021/10/15 11:33:40;;;;;;;11.38;3.55;;;14.80;99.90;;;;;;5067636;28;20072;-74
2021/10/15 11:36:07;;;;;;;9.52;3.63;;;14.90;99.90;;;;;;5067414;28;20041;-74
2021/10/15 11:38:33;;;;;;;8.57;3.78;;;15.10;99.90;;;;;;5052284;28;20159;-74
2021/10/15 11:41:09;;;;;;;9.82;3.58;;;15.20;99.90;;;;;;5067592;28;20163;-74
2021/10/15 11:43:44;;;;;;;6.28;3.10;;;15.30;99.90;;;;;;5066916;28;20162;-74
2021/10/15 11:46:17;;;;;;;5.43;3.00;;;15.50;99.90;;;;;;5051210;28;20405;-73
2021/10/15 11:48:52;;;;;;;10.13;3.75;;;15.60;99.90;;;;;;5052107;28;20082;-74
2021/10/15 11:51:24;;;;;;;7.50;2.95;;;15.70;99.90;;;;;;5067566;28;20050;-74
2021/10/15 11:53:59;;;;;;;6.97;3.25;;;15.80;99.90;;;;;;5051992;28;20117;-74
2021/10/15 11:56:28;;;;;;;9.35;3.40;;;15.90;99.90;;;;;;5051665;28;20490;-74
2021/10/15 11:59:06;;;;;;;5.68;3.58;;;16.20;99.90;;;;;;5051581;28;20036;-74
2021/10/15 12:01:33;;;;;;;8.18;2.75;;;16.40;99.90;;;;;;5067187;28;20033;-74
2021/10/15 12:04:09;;;;;;;6.60;3.08;;;16.40;99.90;;;;;;5051545;28;20044;-74
2021/10/15 12:06:49;;;;;;;5.40;2.78;;;16.20;99.90;;;;;;5051808;28;20037;-73
2021/10/15 12:09:21;;;;;;;6.35;3.00;;;16.00;99.90;;;;;;5051680;28;20094;-73
2021/10/15 12:11:49;;;;;;;6.43;3.00;;;15.70;99.90;;;;;;5067042;28;20048;-74
2021/10/15 12:14:30;;;;;;;7.45;3.13;;;15.80;99.90;;;;;;5050539;28;20157;-74
2021/10/15 12:17:04;;;;;;;;;;;15.90;99.90;;;;;;5067416;28;20037;-74
2021/10/15 12:19:46;;;;;;;5.65;3.13;;;15.80;99.90;;;;;;5051493;28;19924;-75
2021/10/15 12:22:32;;;;;;;7.25;3.33;;;15.80;99.90;;;;;;5066833;28;20037;-74
2021/10/15 12:25:02;;;;;;;5.28;2.58;;;16.00;99.90;;;;;;5050406;28;20071;-74
2021/10/15 12:27:41;;;;;;;6.43;2.72;;;16.00;99.90;;;;;;5066625;28;20029;-75
2021/10/15 12:30:17;;;;;;;5.07;2.67;;;16.10;99.90;;;;;;5050067;28;20033;-74
2021/10/15 12:32:43;;;;;;;7.93;3.03;;;16.60;99.90;;;;;;5067170;28;20527;-75
2021/10/15 12:35:25;;;;;;;5.13;2.60;;;17.20;99.90;;;;;;5051291;28;20056;-75
2021/10/15 12:37:56;;;;;;;5.13;2.65;;;17.40;99.90;;;;;;5051738;28;20036;-74
2021/10/15 12:40:34;;;;;;;4.47;2.38;;;17.60;99.90;;;;;;5051466;28;20639;-74
2021/10/15 12:43:03;;;;;;;9.25;3.80;;;17.90;99.90;;;;;;5066857;28;20482;-74
2021/10/15 12:45:57;;;;;;;5.45;2.22;;;17.90;99.90;;;;;;5051524;28;20064;-74
2021/10/15 12:48:30;;;;;;;6.72;2.38;;;17.80;99.90;;;;;;5051055;28;20041;-74
2021/10/15 12:50:56;;;;;;;5.57;2.42;;;18.30;99.20;;;;;;5066803;28;20064;-75
2021/10/15 12:53:23;;;;;;;7.97;2.53;;;18.60;99.20;;;;;;5051153;28;20788;-74
2021/10/15 12:55:58;;;;;;;5.05;2.28;;;18.70;99.90;;;;;;5050114;28;20478;-74
2021/10/15 12:58:26;;;;;;;6.28;2.40;;;18.70;98.20;;;;;;5051782;28;20059;-74
2021/10/15 13:01:28;;;;;;;9.50;2.47;;;18.30;97.50;;;;;;5054878;28;20061;-74
2021/10/15 13:03:56;;;;;;;7.22;2.50;;;17.70;99.90;;;;;;5054821;28;20064;-74
2021/10/15 13:06:22;;;;;;;4.63;2.10;;;17.80;99.00;;;;;;5069980;28;20478;-74
2021/10/15 13:08:52;;;;;;;5.25;2.13;;;17.90;99.70;;;;;;5054850;28;20090;-74